Latest Weather Observations for Brisbane Airport

IDQ60801

Issued at 1:02 pm EST Wednesday 28 September 2016 (issued every 30 minutes, with the page automatically refreshed every 10 minutes)

About weather observations | Map of weather stations | Latest weather observations for QLD | Other Formats
Station Details ID: 040842 Name: BRISBANE AERO Lat: -27.39 Lon: 153.13 Height: 4.51 m
Data from the previous 72 hours. | See also: Recent months at Brisbane Airport
Date/Time
EST
Temp
°C
App
Temp
°C
Dew
Point
°C
Rel
Hum
%
Delta-T
°C
Wind Press
QNH
hPa
Press
MSL
hPa
Rain since
9am
mm
Dir  Spd
km/h
Gust
km/h
Spd
kts
Gust
kts
28/12:30pm 23.9 19.2 7.8 35 8.5 ENE 22 30 12 16 1012.1 1012.1 0.0
28/12:00pm 24.7 20.2 8.5 35 8.7 ENE 22 32 12 17 1012.5 1012.5 0.0
28/11:30am 24.3 20.8 8.6 36 8.4 ENE 17 24 9 13 1013.1 1013.1 0.0
28/11:00am 23.8 19.6 7.3 34 8.6 E 19 28 10 15 1013.6 1013.6 0.0
28/10:30am 24.5 21.1 5.9 30 9.5 S 13 20 7 11 1013.8 1013.8 0.0
28/10:00am 24.1 20.9 5.2 29 9.5 SW 11 24 6 13 1013.9 1013.9 0.0
28/09:30am 23.5 20.2 6.3 33 8.8 SSW 13 19 7 10 1014.0 1014.0 0.0
28/09:00am 22.5 20.0 6.4 35 8.2 SSW 9 15 5 8 1014.0 1014.0 0.0
28/08:30am 16.1 15.2 12.5 79 2.0 WSW 9 13 5 7 1014.3 1014.3 0.0
28/08:00am 19.6 17.3 7.4 45 6.2 WNW 9 13 5 7 1014.2 1014.2 0.0
28/07:30am 17.8 16.0 8.0 52 5.0 WSW 7 9 4 5 1014.0 1014.0 0.0
28/07:00am 15.9 14.9 7.2 56 4.3 SSW 2 7 1 4 1013.6 1013.6 0.0
28/06:30am 14.5 13.0 9.0 69 2.8 NW 7 11 4 6 1013.2 1013.2 0.0
28/06:00am 12.1 11.6 7.8 75 2.1 CALM 0 0 0 0 1012.6 1012.6 0.0
28/05:30am 13.2 11.3 7.7 69 2.7 SSE 7 9 4 5 1012.3 1012.3 0.0
28/05:00am 12.6 10.8 7.9 73 2.3 S 7 9 4 5 1012.1 1012.1 0.0
28/04:30am 12.9 9.9 6.2 64 3.2 SSW 11 13 6 7 1011.6 1011.6 0.0
28/04:00am 13.1 11.1 6.4 64 3.2 WSW 6 11 3 6 1011.3 1011.3 0.0
28/03:30am 14.1 10.8 6.2 59 3.8 W 13 15 7 8 1011.1 1011.1 0.0
28/03:00am 14.2 11.3 6.5 60 3.7 W 11 13 6 7 1011.0 1011.0 0.0
28/02:30am 13.7 10.8 6.7 62 3.4 WNW 11 13 6 7 1011.1 1011.1 0.0
28/02:00am 12.9 12.2 8.5 74 2.2 W 2 7 1 4 1011.5 1011.5 0.0
28/01:30am 13.0 11.9 8.6 74 2.2 W 4 7 2 4 1011.6 1011.6 0.0
28/01:00am 14.4 14.0 8.4 67 3.0 CALM 0 0 0 0 1011.6 1011.6 0.0
28/12:30am 14.4 11.6 7.0 61 3.6 WNW 11 15 6 8 1011.9 1011.9 0.0
28/12:00am 14.3 11.4 8.1 66 3.1 WNW 13 13 7 7 1012.1 1012.1 0.0
 
Date/Time
EST
Temp
°C
App
Temp
°C
Dew
Point
°C
Rel
Hum
%
Delta-T
°C
Wind Press
QNH
hPa
Press
MSL
hPa
Rain since
9am
mm
Dir  Spd
km/h
Gust
km/h
Spd
kts
Gust
kts
27/11:30pm 14.1 14.0 9.6 74 2.3 CALM 0 0 0 0 1012.3 1012.3 0.0
27/11:00pm 15.0 14.9 9.4 69 2.9 CALM 0 0 0 0 1012.4 1012.4 0.0
27/10:30pm 14.7 14.7 9.9 73 2.5 CALM 0 0 0 0 1012.6 1012.6 0.0
27/10:00pm 14.7 14.7 9.9 73 2.5 CALM 0 0 0 0 1012.6 1012.6 0.0
27/09:30pm 15.5 15.5 9.9 69 2.9 CALM 0 0 0 0 1012.8 1012.8 0.0
27/09:00pm 15.6 15.5 9.4 66 3.2 CALM 0 0 0 0 1012.9 1012.9 0.0
27/08:30pm 16.1 16.2 10.0 67 3.2 CALM 0 0 0 0 1012.7 1012.7 0.0
27/08:00pm 17.5 17.5 9.7 60 4.1 CALM 0 7 0 4 1012.6 1012.6 0.0
27/07:30pm 17.9 18.1 10.4 61 4.0 CALM 0 0 0 0 1012.4 1012.4 0.0
27/07:00pm 17.7 15.0 10.4 62 3.9 N 15 19 8 10 1012.0 1012.0 0.0
27/06:30pm 19.2 16.0 11.1 59 4.4 NNE 19 33 10 18 1011.6 1011.6 0.0
27/06:00pm 19.2 15.3 9.4 53 5.2 NNE 20 26 11 14 1011.3 1011.3 0.0
27/05:30pm 19.5 14.8 7.8 46 6.0 NNE 22 28 12 15 1011.0 1011.0 0.0
27/05:00pm 20.5 15.7 10.4 52 5.5 NNE 26 30 14 16 1010.7 1010.7 0.0
27/04:30pm 21.5 16.5 8.1 42 7.0 NE 24 28 13 15 1010.5 1010.5 0.0
27/04:00pm 21.7 16.7 7.9 41 7.2 NE 24 30 13 16 1010.3 1010.3 0.0
27/03:30pm 21.9 16.5 7.9 40 7.3 NNE 26 33 14 18 1010.4 1010.4 0.0
27/03:00pm 22.0 16.4 7.0 38 7.7 NNE 26 32 14 17 1010.8 1010.8 0.0
27/02:30pm 22.4 16.5 7.6 38 7.7 NNE 28 33 15 18 1010.7 1010.7 0.0
27/02:00pm 23.9 18.8 7.5 35 8.6 NE 24 32 13 17 1011.1 1011.1 0.0
27/01:30pm 23.3 19.3 5.1 30 9.1 NNE 15 24 8 13 1011.8 1011.8 0.0
27/01:00pm 24.6 20.5 2.2 23 10.7 SW 13 22 7 12 1012.4 1012.4 0.0
27/12:30pm 23.2 18.2 1.3 23 10.2 WSW 17 30 9 16 1012.6 1012.6 0.0
27/12:00pm 22.6 17.1 0.8 23 10.0 SW 19 28 10 15 1012.9 1012.9 0.0
27/11:30am 21.9 16.8 0.9 25 9.6 SSW 17 24 9 13 1013.6 1013.6 0.0
27/11:00am 21.5 16.5 1.5 26 9.2 SW 17 26 9 14 1014.1 1014.1 0.0
27/10:30am 20.6 15.1 1.6 28 8.7 SW 20 26 11 14 1014.4 1014.4 0.0
27/10:00am 20.0 13.9 2.9 32 8.0 SW 24 30 13 16 1014.6 1014.6 0.0
27/09:30am 19.3 13.7 3.3 34 7.5 SW 22 32 12 17 1014.7 1014.7 0.0
27/09:00am 18.5 11.7 3.2 36 7.1 SSW 28 33 15 18 1015.0 1015.0 0.0
27/08:30am 17.9 12.3 3.2 37 6.8 SSW 22 32 12 17 1015.3 1015.3 0.0
27/08:00am 18.1 12.1 3.2 37 6.9 SSW 24 33 13 18 1015.0 1015.0 0.0
27/07:30am 18.1 11.7 3.2 37 6.9 SSW 26 35 14 19 1014.5 1014.5 0.0
27/07:00am 17.6 13.1 4.0 40 6.4 SSW 17 28 9 15 1013.8 1013.8 0.0
27/06:30am 16.2 13.2 6.1 51 4.9 SSW 11 13 6 7 1013.9 1013.9 0.0
27/06:00am 14.7 12.8 7.6 62 3.5 WSW 7 9 4 5 1013.1 1013.1 0.0
27/05:30am 15.1 12.1 5.9 54 4.4 W 11 15 6 8 1012.3 1012.3 0.0
27/05:00am 15.7 14.5 6.5 54 4.5 WNW 2 7 1 4 1012.1 1012.1 0.0
27/04:30am 16.2 12.6 6.6 53 4.7 WSW 15 20 8 11 1011.8 1011.8 0.0
27/04:00am 16.7 13.0 6.5 51 5.0 WSW 15 20 8 11 1011.6 1011.6 0.0
27/03:30am 16.2 12.7 7.1 55 4.5 WSW 15 22 8 12 1011.5 1011.5 0.0
27/03:00am 16.6 13.8 6.9 52 4.8 SW 11 15 6 8 1011.3 1011.3 0.0
27/02:30am 16.5 12.7 7.5 55 4.5 WSW 17 20 9 11 1011.4 1011.4 0.0
27/02:00am 16.1 12.7 7.7 57 4.2 W 15 24 8 13 1011.8 1011.8 0.0
27/01:30am 17.2 13.4 7.4 52 4.9 W 17 19 9 10 1011.9 1011.9 0.0
27/01:00am 17.8 14.0 7.5 51 5.2 W 17 22 9 12 1012.2 1012.2 0.0
27/12:30am 17.9 14.9 7.9 52 5.1 W 13 17 7 9 1012.5 1012.5 0.0
27/12:00am 19.0 15.5 7.4 47 5.9 W 15 26 8 14 1012.6 1012.6 0.0
 
Date/Time
EST
Temp
°C
App
Temp
°C
Dew
Point
°C
Rel
Hum
%
Delta-T
°C
Wind Press
QNH
hPa
Press
MSL
hPa
Rain since
9am
mm
Dir  Spd
km/h
Gust
km/h
Spd
kts
Gust
kts
26/11:30pm 19.4 16.0 7.7 46 6.0 W 15 19 8 10 1012.5 1012.5 0.0
26/11:00pm 19.3 15.8 8.8 50 5.5 W 17 32 9 17 1012.3 1012.3 0.0
26/10:30pm 17.8 16.7 13.0 73 2.7 NW 11 13 6 7 1012.6 1012.6 0.0
26/10:00pm 18.0 16.2 13.2 73 2.7 NW 15 26 8 14 1012.5 1012.5 0.0
26/09:30pm 18.2 16.4 13.2 72 2.8 NNW 15 20 8 11 1012.5 1012.5 0.0
26/09:00pm 18.6 17.3 13.7 73 2.8 NW 13 24 7 13 1012.1 1012.1 0.0
26/08:30pm 19.3 18.2 14.3 73 2.9 NNW 13 17 7 9 1011.9 1011.9 0.0
26/08:00pm 19.3 17.8 14.1 72 3.0 N 15 17 8 9 1012.0 1012.0 0.0
26/07:30pm 19.5 17.5 13.9 70 3.2 N 17 20 9 11 1011.4 1011.4 0.0
26/07:00pm 19.2 17.1 13.6 70 3.2 N 17 22 9 12 1011.3 1011.3 0.0
26/06:30pm 19.3 16.9 13.7 70 3.2 N 19 26 10 14 1011.1 1011.1 0.0
26/06:00pm 19.3 16.9 13.9 71 3.1 N 19 26 10 14 1010.7 1010.7 0.0
26/05:30pm 19.7 18.5 14.0 69 3.3 NNE 13 15 7 8 1010.4 1010.4 0.0
26/05:00pm 21.3 19.4 13.1 59 4.7 NNE 15 20 8 11 1010.1 1010.1 0.0
26/04:30pm 22.1 19.1 12.6 55 5.4 NE 20 26 11 14 1009.8 1009.8 0.0
26/04:00pm 22.8 19.1 11.6 49 6.3 NE 22 30 12 16 1009.5 1009.5 0.0
26/03:30pm 23.0 19.8 11.4 48 6.5 NE 19 24 10 13 1009.4 1009.4 0.0
26/03:00pm 23.9 20.0 8.6 37 8.2 NE 19 24 10 13 1009.4 1009.4 0.0
26/02:30pm 23.6 19.1 6.8 34 8.7 NE 20 28 11 15 1009.4 1009.4 0.0
26/02:00pm 23.8 19.8 10.6 43 7.3 NE 22 28 12 15 1009.8 1009.8 0.0
26/01:30pm 24.0 19.3 9.2 39 8.0 NNE 24 30 13 16 1010.1 1010.1 0.0
26/01:00pm 24.2 20.3 9.3 38 8.1 NNE 20 28 11 15 1010.5 1010.5 0.0
26/12:30pm 24.8 22.2 6.2 30 9.6 NNE 9 15 5 8 1011.1 1011.1 0.0
26/12:00pm 24.6 21.9 5.5 29 9.7 SW 9 26 5 14 1011.6 1011.6 0.0
26/11:30am 24.0 20.6 6.0 31 9.2 WSW 13 24 7 13 1012.1 1012.1 0.0
26/11:00am 23.6 19.7 7.0 34 8.6 WSW 17 24 9 13 1012.6 1012.6 0.0
26/10:30am 23.6 20.6 7.8 36 8.3 SW 13 22 7 12 1012.9 1012.9 0.0
26/10:00am 23.2 19.9 8.0 37 8.0 SSW 15 22 8 12 1013.2 1013.2 0.0
26/09:30am 22.4 18.4 8.1 40 7.5 SW 19 28 10 15 1013.5 1013.5 0.0
26/09:00am 22.0 17.6 9.1 43 6.9 SW 22 30 12 16 1013.5 1013.5 0.0
26/08:30am 20.9 15.5 8.0 43 6.7 SW 26 32 14 17 1013.5 1013.5 0.0
26/08:00am 20.3 15.3 8.2 45 6.3 SSW 24 30 13 16 1013.2 1013.2 0.0
26/07:30am 19.6 15.1 8.4 48 5.8 SW 22 30 12 16 1013.0 1013.0 0.0
26/07:00am 18.8 15.3 8.8 52 5.2 SW 17 22 9 12 1012.7 1012.7 0.0
26/06:30am 17.1 16.9 9.2 59 4.1 CALM 0 6 0 3 1012.2 1012.2 0.0
26/06:00am 15.8 14.3 9.2 65 3.4 S 7 13 4 7 1011.8 1011.8 0.0
26/05:30am 14.9 11.7 8.6 66 3.2 SW 15 19 8 10 1011.4 1011.4 0.0
26/05:00am 15.7 12.4 8.2 61 3.8 SW 15 17 8 9 1011.2 1011.2 0.0
26/04:30am 15.3 10.3 8.1 62 3.6 SW 24 30 13 16 1010.9 1010.9 0.0
26/04:00am 16.9 11.8 7.6 54 4.7 WSW 24 32 13 17 1010.7 1010.7 0.0
26/03:30am 17.3 12.4 7.1 51 5.1 WSW 22 30 12 16 1010.5 1010.5 0.0
26/03:00am 17.2 11.7 7.5 53 4.9 WSW 26 32 14 17 1010.2 1010.2 0.0
26/02:30am 17.5 12.8 7.6 52 5.0 WSW 22 30 12 16 1010.1 1010.1 0.0
26/02:00am 17.3 12.2 7.8 53 4.8 WSW 24 28 13 15 1010.3 1010.3 0.0
26/01:30am 16.4 10.7 8.3 58 4.1 SW 28 30 15 16 1010.4 1010.4 0.0
26/01:00am 14.4 10.8 8.4 67 3.0 SW 17 20 9 11 1010.6 1010.6 0.0
26/12:30am 17.5 14.4 7.4 51 5.1 SSW 13 15 7 8 1010.9 1010.9 0.0
26/12:00am 17.1 13.2 7.3 52 4.9 SW 17 28 9 15 1011.0 1011.0 0.0
 
Date/Time
EST
Temp
°C
App
Temp
°C
Dew
Point
°C
Rel
Hum
%
Delta-T
°C
Wind Press
QNH
hPa
Press
MSL
hPa
Rain since
9am
mm
Dir  Spd
km/h
Gust
km/h
Spd
kts
Gust
kts
25/11:30pm 17.8 13.6 7.3 50 5.3 SW 19 26 10 14 1010.9 1010.9 0.0
25/11:00pm 18.9 15.4 7.3 47 5.9 WSW 15 19 8 10 1010.8 1010.8 0.0
25/10:30pm 19.7 15.1 6.6 42 6.6 WSW 20 26 11 14 1010.6 1010.6 0.0
25/10:00pm 18.8 16.2 7.6 48 5.7 SW 11 17 6 9 1010.6 1010.6 0.0
25/09:30pm 20.5 16.0 6.9 41 6.9 WSW 20 28 11 15 1010.4 1010.4 0.0
25/09:00pm 21.3 15.6 6.8 39 7.4 WSW 26 33 14 18 1010.1 1010.1 0.0
25/08:30pm 21.9 16.6 6.6 37 7.8 WSW 24 32 13 17 1010.1 1010.1 0.0
25/08:00pm 22.8 17.3 6.1 34 8.5 WSW 24 33 13 18 1009.7 1009.7 0.0
25/07:30pm 23.0 18.9 6.1 33 8.6 WSW 17 28 9 15 1009.1 1009.1 0.0
25/07:00pm 23.4 19.0 7.3 35 8.4 WSW 20 32 11 17 1008.6 1008.6 0.0
25/06:30pm 24.2 18.8 8.0 35 8.6 WSW 26 35 14 19 1007.8 1007.8 0.0
25/06:00pm 24.5 20.1 9.0 37 8.4 WSW 22 30 12 16 1007.1 1007.1 0.0
25/05:30pm 25.0 19.0 10.0 38 8.3 WSW 32 43 17 23 1006.6 1006.6 0.0
25/05:00pm 26.1 19.5 9.9 36 9.0 WSW 35 48 19 26 1006.1 1006.1 0.0
25/04:30pm 26.1 19.3 10.6 37 8.7 W 37 50 20 27 1005.7 1005.7 0.0
25/04:00pm 26.8 21.3 10.4 35 9.2 WSW 30 39 16 21 1005.3 1005.3 0.0
25/03:30pm 26.0 21.0 12.1 42 8.0 W 30 37 16 20 1005.4 1005.4 0.0
25/03:05pm 26.2 19.7 10.5 37 8.8 W 35 54 19 29 1005.5 1005.5 0.0
25/03:00pm 26.7 20.9 10.8 37 9.0 W 32 41 17 22 1005.3 1005.3 0.0
25/02:30pm 27.0 22.6 10.5 35 9.3 W 24 33 13 18 1005.1 1005.1 0.0
25/02:00pm 26.8 21.7 10.7 36 9.1 WSW 28 35 15 19 1005.4 1005.4 0.0
25/01:30pm 26.5 20.8 9.7 34 9.3 W 30 39 16 21 1005.5 1005.5 0.0
25/01:09pm 27.6 22.3 9.7 32 10.0 W 28 48 15 26 1005.8 1005.8 0.0

Other Formats:

Comma delimited format used in spreadsheet applications
http://www.bom.gov.au/fwo/IDQ60801/IDQ60801.94578.axf

JavaScript Object Notation format (JSON) in row-major order
http://www.bom.gov.au/fwo/IDQ60801/IDQ60801.94578.json